Time;durP1;ratioP1;P1;durP2;ratioP2;P2;SDS_P1;SDS_P2;PMS_P1;PMS_P2;Temp;Humidity;BMP_temperature;BMP_pressure;BME280_temperature;BME280_humidity;BME280_pressure;Samples;Min_cycle;Max_cycle;Signal;HPM_P1;HPM_P2
2022/07/15 00:00:28;;;;;;;3.63;2.40;;;24.50;42.10;;;;;;7380963;19;20440;-50
2022/07/15 00:02:58;;;;;;;3.67;2.20;;;24.50;42.20;;;;;;7386483;19;20382;-50
2022/07/15 00:05:27;;;;;;;2.90;2.27;;;24.40;42.40;;;;;;7381649;19;20952;-50
2022/07/15 00:07:58;;;;;;;2.20;2.00;;;24.30;42.70;;;;;;7384564;19;20387;-50
2022/07/15 00:10:28;;;;;;;3.37;2.73;;;24.20;43.20;;;;;;7384556;19;20383;-45
2022/07/15 00:12:59;;;;;;;3.50;2.80;;;24.00;43.70;;;;;;7383740;19;20376;-46
2022/07/15 00:15:34;;;;;;;2.70;2.27;;;23.80;44.40;;;;;;7377123;19;20772;-45
2022/07/15 00:18:04;;;;;;;2.27;2.07;;;23.50;45.20;;;;;;7382683;19;20736;-45
2022/07/15 00:20:35;;;;;;;2.20;2.00;;;23.40;45.40;;;;;;7386229;19;20752;-45
2022/07/15 00:23:05;;;;;;;2.93;1.90;;;23.20;45.70;;;;;;7384626;19;20383;-45
2022/07/15 00:25:35;;;;;;;2.83;2.00;;;23.10;45.70;;;;;;7382962;19;20463;-45
2022/07/15 00:28:07;;;;;;;3.80;2.07;;;22.90;46.20;;;;;;7384302;19;20950;-45
2022/07/15 00:30:41;;;;;;;6.83;3.03;;;22.70;46.80;;;;;;7382850;19;20946;-45
2022/07/15 00:33:11;;;;;;;3.80;2.50;;;22.60;47.00;;;;;;7386621;19;20992;-45
2022/07/15 00:35:42;;;;;;;3.10;2.00;;;22.50;47.40;;;;;;7383325;19;20380;-45
2022/07/15 00:38:12;;;;;;;3.60;1.90;;;22.30;47.70;;;;;;7386533;19;20383;-45
2022/07/15 00:40:43;;;;;;;4.47;1.93;;;22.20;48.30;;;;;;7381489;19;20757;-45
2022/07/15 00:43:13;;;;;;;2.77;2.47;;;22.10;48.30;;;;;;7380723;19;20376;-45
2022/07/15 00:45:46;;;;;;;3.23;2.13;;;21.80;49.00;;;;;;7372845;19;20927;-45
2022/07/15 00:48:15;;;;;;;4.10;2.30;;;21.80;49.20;;;;;;7380472;19;20376;-46
2022/07/15 00:50:45;;;;;;;3.37;3.07;;;21.70;49.20;;;;;;7385322;19;20376;-50
2022/07/15 00:53:20;;;;;;;2.50;2.20;;;21.80;49.20;;;;;;7378307;19;20380;-50
2022/07/15 00:55:51;;;;;;;4.23;2.63;;;21.80;49.30;;;;;;7378159;19;20376;-50
2022/07/15 00:58:24;;;;;;;3.47;2.10;;;21.80;49.10;;;;;;7383810;19;20478;-52
2022/07/15 01:01:00;;;;;;;2.10;1.73;;;21.60;49.30;;;;;;7373082;19;20495;-50
2022/07/15 01:03:32;;;;;;;3.97;2.50;;;21.60;50.00;;;;;;7376469;19;20382;-50
2022/07/15 01:06:02;;;;;;;3.77;1.97;;;21.50;50.00;;;;;;7379066;19;20360;-50
2022/07/15 01:08:32;;;;;;;2.20;1.70;;;21.40;50.00;;;;;;7380156;19;20364;-52
2022/07/15 01:11:01;;;;;;;3.63;2.10;;;21.10;50.40;;;;;;7380658;19;20391;-50
2022/07/15 01:13:31;;;;;;;3.03;2.13;;;20.90;51.10;;;;;;7378514;19;20373;-50
2022/07/15 01:16:03;;;;;;;2.83;2.57;;;21.10;51.20;;;;;;7381609;19;20356;-50
2022/07/15 01:18:34;;;;;;;5.30;2.47;;;21.20;50.80;;;;;;7378551;19;20759;-50
2022/07/15 01:21:06;;;;;;;2.97;2.10;;;21.10;50.70;;;;;;7383227;19;20457;-45
2022/07/15 01:23:40;;;;;;;11.53;2.27;;;20.90;51.30;;;;;;7379668;19;20384;-45
2022/07/15 01:26:32;;;;;;;6.07;2.23;;;21.00;51.70;;;;;;7377698;19;20385;-45
2022/07/15 01:29:01;;;;;;;5.13;2.50;;;21.00;51.80;;;;;;7380456;19;21013;-45
2022/07/15 01:31:31;;;;;;;4.07;2.43;;;21.00;51.70;;;;;;7380830;19;20450;-45
2022/07/15 01:34:03;;;;;;;3.37;2.27;;;21.00;51.70;;;;;;7378350;19;20368;-45
2022/07/15 01:36:38;;;;;;;3.03;2.40;;;20.70;52.40;;;;;;7378211;19;20364;-45
2022/07/15 01:39:08;;;;;;;4.97;2.17;;;20.70;52.70;;;;;;7381375;19;20412;-45
2022/07/15 01:41:38;;;;;;;4.83;2.37;;;20.60;52.70;;;;;;7381796;19;20945;-45
2022/07/15 01:44:09;;;;;;;5.70;2.87;;;20.50;53.30;;;;;;7379341;19;20941;-45
2022/07/15 01:46:38;;;;;;;2.40;2.13;;;20.30;53.90;;;;;;7374419;19;20384;-45
2022/07/15 01:52:09;;;;;;;2.40;1.80;;;20.00;54.80;;;;;;7377338;19;20429;-50
2022/07/15 01:54:39;;;;;;;2.70;2.50;;;19.80;55.30;;;;;;7381998;19;20384;-50
2022/07/15 01:57:12;;;;;;;4.70;2.53;;;19.70;55.80;;;;;;7377664;19;20376;-50
2022/07/15 01:59:55;;;;;;;3.53;2.40;;;19.60;56.10;;;;;;7380458;19;20440;-52
2022/07/15 02:02:47;;;;;;;5.07;2.60;;;19.70;56.10;;;;;;7377683;19;21420;-52
2022/07/15 02:05:21;;;;;;;2.97;2.47;;;19.70;56.10;;;;;;7378834;19;20935;-50
2022/07/15 02:07:55;;;;;;;5.10;2.57;;;19.60;56.30;;;;;;7382293;19;20375;-52
2022/07/15 02:10:39;;;;;;;5.13;3.00;;;19.40;56.60;;;;;;7386722;19;20769;-51
2022/07/15 02:13:13;;;;;;;3.50;2.80;;;19.50;56.50;;;;;;7387920;19;20791;-50
2022/07/15 02:15:44;;;;;;;2.30;2.10;;;19.50;56.40;;;;;;7380345;19;20774;-52
2022/07/15 02:18:13;;;;;;;5.07;2.60;;;19.60;56.40;;;;;;7386958;19;20394;-50
2022/07/15 02:20:43;;;;;;;4.63;2.57;;;19.80;55.90;;;;;;7384827;19;20475;-45
2022/07/15 02:23:15;;;;;;;3.73;2.40;;;20.00;55.20;;;;;;7392165;19;20838;-46
2022/07/15 02:25:45;;;;;;;2.97;2.30;;;20.20;54.80;;;;;;7384341;19;21038;-45
2022/07/15 02:28:14;;;;;;;4.10;2.50;;;20.30;54.70;;;;;;7387222;19;20455;-45
2022/07/15 02:30:46;;;;;;;4.07;2.73;;;20.00;55.10;;;;;;7382537;19;21568;-46
2022/07/15 02:33:16;;;;;;;3.63;3.23;;;19.70;55.70;;;;;;7386189;19;20365;-45
2022/07/15 02:35:46;;;;;;;3.20;2.43;;;19.50;56.30;;;;;;7380038;19;20484;-45
2022/07/15 02:38:19;;;;;;;4.27;2.20;;;19.30;56.50;;;;;;7387391;19;21204;-45
2022/07/15 02:40:51;;;;;;;5.60;2.67;;;19.20;57.00;;;;;;7385731;19;20472;-45
2022/07/15 02:43:21;;;;;;;3.57;2.33;;;19.10;57.20;;;;;;7387329;19;20405;-45
2022/07/15 02:45:51;;;;;;;2.60;2.40;;;19.00;57.30;;;;;;7383024;19;20379;-45
2022/07/15 02:48:21;;;;;;;3.60;2.80;;;19.00;57.20;;;;;;7388025;19;20374;-45
2022/07/15 02:50:52;;;;;;;4.43;2.20;;;19.10;57.60;;;;;;7391476;19;20414;-45
2022/07/15 02:53:28;;;;;;;2.70;1.77;;;19.30;56.30;;;;;;7385869;19;20448;-45
2022/07/15 02:55:59;;;;;;;2.37;2.07;;;19.20;56.20;;;;;;7382363;19;20367;-45
2022/07/15 02:58:30;;;;;;;3.90;2.50;;;19.00;56.60;;;;;;7384186;19;20463;-45
2022/07/15 03:01:00;;;;;;;3.93;1.90;;;19.00;56.50;;;;;;7382839;19;20522;-45
2022/07/15 03:03:32;;;;;;;5.63;2.30;;;19.00;56.20;;;;;;7387387;19;20395;-44
2022/07/15 03:06:02;;;;;;;3.00;2.07;;;19.00;55.80;;;;;;7383624;19;20387;-44
2022/07/15 03:08:34;;;;;;;7.17;2.47;;;18.80;56.20;;;;;;7385399;19;20474;-45
2022/07/15 03:11:04;;;;;;;4.20;2.47;;;18.70;56.70;;;;;;7384368;19;20388;-45
2022/07/15 03:13:33;;;;;;;3.10;2.17;;;18.50;56.70;;;;;;7384439;19;20387;-45
2022/07/15 03:16:03;;;;;;;3.53;2.23;;;18.60;57.40;;;;;;7375568;19;20372;-45
2022/07/15 03:18:34;;;;;;;5.93;2.13;;;18.60;56.60;;;;;;7382898;19;20388;-45
2022/07/15 03:21:04;;;;;;;3.40;1.90;;;18.60;56.60;;;;;;7381586;19;20407;-50
2022/07/15 03:23:37;;;;;;;2.10;1.90;;;18.50;57.00;;;;;;7383976;19;20390;-50
2022/07/15 03:26:07;;;;;;;3.10;1.87;;;18.50;56.90;;;;;;7382188;19;20379;-50
2022/07/15 03:28:37;;;;;;;2.83;2.30;;;18.70;56.70;;;;;;7381193;19;20456;-50
2022/07/15 03:31:09;;;;;;;3.83;1.70;;;18.90;56.20;;;;;;7383604;19;20421;-50
2022/07/15 03:33:38;;;;;;;3.90;2.50;;;18.80;55.90;;;;;;7387245;19;20413;-50
2022/07/15 03:36:11;;;;;;;2.70;2.10;;;18.50;56.70;;;;;;7375719;19;20719;-52
2022/07/15 03:38:43;;;;;;;2.57;1.90;;;18.50;56.70;;;;;;7383791;19;20783;-50
2022/07/15 03:41:15;;;;;;;1.90;1.67;;;18.50;57.00;;;;;;7383477;19;20387;-50
2022/07/15 03:43:44;;;;;;;2.77;1.97;;;18.40;57.00;;;;;;7385165;19;20399;-50
2022/07/15 03:46:15;;;;;;;3.27;2.17;;;18.50;56.80;;;;;;7373506;19;20554;-50
2022/07/15 03:48:49;;;;;;;5.00;2.30;;;18.50;56.70;;;;;;7387595;19;20715;-50
2022/07/15 03:51:21;;;;;;;2.53;2.33;;;18.40;57.40;;;;;;7381786;19;20962;-51
2022/07/15 03:53:54;;;;;;;11.53;3.40;;;18.40;57.60;;;;;;7388101;19;20384;-51
2022/07/15 03:56:24;;;;;;;3.53;2.37;;;18.40;57.60;;;;;;7378906;19;20364;-51
2022/07/15 03:58:54;;;;;;;3.13;1.73;;;18.30;57.70;;;;;;7378831;19;20368;-51
2022/07/15 04:01:24;;;;;;;5.50;2.20;;;18.30;58.00;;;;;;7375848;19;20447;-52
2022/07/15 04:03:59;;;;;;;4.03;2.20;;;18.40;58.10;;;;;;7384146;19;20929;-50
2022/07/15 04:06:32;;;;;;;3.20;2.40;;;18.40;58.20;;;;;;7370111;19;20368;-50
2022/07/15 04:09:06;;;;;;;8.00;2.60;;;18.50;58.20;;;;;;7382346;19;20399;-50
2022/07/15 04:11:35;;;;;;;2.07;1.80;;;18.40;58.50;;;;;;7385315;19;20384;-52
2022/07/15 04:14:05;;;;;;;3.30;2.40;;;18.40;58.60;;;;;;7381154;19;20451;-50
2022/07/15 04:16:35;;;;;;;3.83;2.57;;;18.30;58.80;;;;;;7379884;19;20376;-50
2022/07/15 04:19:14;;;;;;;2.20;2.00;;;18.40;59.10;;;;;;7383418;19;21170;-52
2022/07/15 04:21:44;;;;;;;5.00;2.40;;;18.40;59.10;;;;;;7382889;19;20373;-50
2022/07/15 04:24:16;;;;;;;3.07;2.20;;;18.50;58.70;;;;;;7381667;19;20388;-50
2022/07/15 04:26:45;;;;;;;5.53;3.00;;;18.50;58.70;;;;;;7371229;19;21164;-50
2022/07/15 04:29:18;;;;;;;2.43;2.00;;;18.40;58.80;;;;;;7374606;19;20399;-52
2022/07/15 04:31:49;;;;;;;2.90;2.60;;;18.50;58.80;;;;;;7374905;19;20413;-50
2022/07/15 04:34:25;;;;;;;2.70;2.13;;;18.50;58.70;;;;;;7383227;19;20383;-50
2022/07/15 04:36:54;;;;;;;2.80;1.83;;;18.60;58.70;;;;;;7378805;19;20487;-51
2022/07/15 04:39:29;;;;;;;3.47;2.30;;;18.50;59.10;;;;;;7384376;19;20395;-50
2022/07/15 04:42:00;;;;;;;3.80;2.50;;;18.60;59.30;;;;;;7381575;19;20543;-51
2022/07/15 04:44:30;;;;;;;3.53;2.77;;;18.80;59.20;;;;;;7383673;19;20381;-52
2022/07/15 04:47:02;;;;;;;8.40;2.73;;;18.90;59.00;;;;;;7378069;19;20376;-50
2022/07/15 04:52:19;;;;;;;5.30;2.53;;;19.00;59.10;;;;;;7382612;19;20368;-50
2022/07/15 04:54:54;;;;;;;3.33;2.47;;;19.30;59.00;;;;;;7374725;19;20368;-50
2022/07/15 04:57:24;;;;;;;3.47;2.90;;;19.40;58.70;;;;;;7383332;19;20441;-50
2022/07/15 04:59:54;;;;;;;3.10;2.20;;;19.60;58.70;;;;;;7373567;19;20417;-52
2022/07/15 05:02:26;;;;;;;3.27;2.70;;;19.70;58.80;;;;;;7367090;19;20376;-51
2022/07/15 05:04:58;;;;;;;9.43;3.40;;;19.80;58.80;;;;;;7377634;19;20384;-50
2022/07/15 05:07:27;;;;;;;3.30;2.53;;;19.80;58.90;;;;;;7376409;19;20436;-50
2022/07/15 05:10:02;;;;;;;5.13;2.60;;;19.70;59.50;;;;;;7370659;19;20921;-50
2022/07/15 05:12:31;;;;;;;4.37;2.60;;;19.90;59.20;;;;;;7369498;19;20467;-50
2022/07/15 05:15:01;;;;;;;4.20;2.73;;;19.90;59.80;;;;;;7367554;19;20372;-51
2022/07/15 05:17:33;;;;;;;4.70;3.20;;;19.90;59.40;;;;;;7367866;19;20384;-51
2022/07/15 05:20:03;;;;;;;6.33;2.83;;;20.10;59.10;;;;;;7382895;19;20447;-50
2022/07/15 05:22:33;;;;;;;7.33;2.87;;;20.10;59.20;;;;;;7375127;19;21016;-51
2022/07/15 05:25:09;;;;;;;7.87;3.57;;;20.40;58.70;;;;;;7374942;19;20376;-51
2022/07/15 05:27:40;;;;;;;5.63;2.90;;;20.60;58.10;;;;;;7367278;19;20386;-51
2022/07/15 05:30:12;;;;;;;2.80;2.60;;;20.60;57.40;;;;;;7377346;19;20380;-52
2022/07/15 05:32:42;;;;;;;5.03;2.77;;;20.50;58.00;;;;;;7384261;19;20379;-50
2022/07/15 05:35:17;;;;;;;5.00;3.30;;;20.70;57.20;;;;;;7370056;19;20419;-50
2022/07/15 05:37:47;;;;;;;3.87;2.33;;;20.90;56.70;;;;;;7374233;19;20391;-50
2022/07/15 05:40:25;;;;;;;3.50;3.07;;;21.10;56.20;;;;;;7376686;19;20388;-51
2022/07/15 05:42:56;;;;;;;7.30;2.90;;;21.20;55.80;;;;;;7370603;19;20772;-51
2022/07/15 05:45:28;;;;;;;6.07;2.60;;;21.30;55.60;;;;;;7367931;19;20360;-52
2022/07/15 05:48:04;;;;;;;5.73;3.10;;;21.50;55.30;;;;;;7378542;19;20391;-51
2022/07/15 05:50:38;;;;;;;4.50;3.10;;;21.70;55.60;;;;;;7384432;19;20360;-51
2022/07/15 05:53:09;;;;;;;6.13;3.30;;;21.70;55.20;;;;;;7380840;19;20917;-51
2022/07/15 05:55:41;;;;;;;5.20;3.10;;;21.90;55.10;;;;;;7379167;19;20373;-51
2022/07/15 05:58:15;;;;;;;3.30;3.00;;;21.90;54.40;;;;;;7368908;19;20731;-50
2022/07/15 06:00:47;;;;;;;6.83;3.10;;;21.80;54.40;;;;;;7364280;19;20445;-51
2022/07/15 06:03:17;;;;;;;7.07;2.90;;;21.90;54.20;;;;;;7364020;19;20455;-50
2022/07/15 06:05:48;;;;;;;4.83;3.07;;;22.00;54.00;;;;;;7382781;19;20384;-51
2022/07/15 06:08:18;;;;;;;4.87;3.43;;;22.10;53.50;;;;;;7382437;19;20376;-50
2022/07/15 06:10:51;;;;;;;4.90;2.83;;;22.20;52.90;;;;;;7376192;19;20754;-51
2022/07/15 06:13:23;;;;;;;5.67;3.40;;;22.20;52.70;;;;;;7381530;19;20404;-51
2022/07/15 06:15:53;;;;;;;5.17;2.60;;;22.20;52.10;;;;;;7384483;19;20491;-51
2022/07/15 06:18:26;;;;;;;6.37;2.80;;;22.20;52.30;;;;;;7384011;19;20368;-51
2022/07/15 06:20:57;;;;;;;3.67;2.70;;;22.30;51.60;;;;;;7383936;19;21081;-52
2022/07/15 06:23:27;;;;;;;8.70;2.20;;;22.40;51.40;;;;;;7383335;19;20365;-50
2022/07/15 06:25:59;;;;;;;6.17;2.40;;;22.50;50.20;;;;;;7382781;19;20388;-50
2022/07/15 06:28:32;;;;;;;2.90;2.60;;;22.70;50.30;;;;;;7379302;19;20376;-50
2022/07/15 06:31:02;;;;;;;4.50;2.53;;;22.80;49.90;;;;;;7384198;19;20379;-50
2022/07/15 06:33:31;;;;;;;4.70;2.70;;;22.90;49.40;;;;;;7384500;19;20364;-50
2022/07/15 06:36:01;;;;;;;4.70;2.50;;;23.00;48.60;;;;;;7381925;19;20920;-50
2022/07/15 06:38:33;;;;;;;4.07;2.70;;;23.30;48.20;;;;;;7385753;19;20379;-50
2022/07/15 06:41:05;;;;;;;4.47;2.53;;;23.40;48.10;;;;;;7372405;19;20376;-52
2022/07/15 06:43:34;;;;;;;3.93;2.13;;;23.30;46.90;;;;;;7377530;19;20373;-52
2022/07/15 06:46:12;;;;;;;2.40;2.20;;;23.40;47.30;;;;;;7380839;19;20933;-50
2022/07/15 06:48:44;;;;;;;4.33;2.30;;;23.50;47.70;;;;;;7379420;19;20445;-50
2022/07/15 06:51:14;;;;;;;3.93;2.73;;;23.70;46.70;;;;;;7375293;19;20963;-50
2022/07/15 06:53:43;;;;;;;4.90;2.60;;;23.90;46.40;;;;;;7378700;19;20737;-50
2022/07/15 06:56:16;;;;;;;3.13;2.10;;;24.00;46.80;;;;;;7382075;19;20380;-50
2022/07/15 06:58:46;;;;;;;6.40;2.47;;;24.20;46.60;;;;;;7387025;19;20398;-50
2022/07/15 07:01:15;;;;;;;3.10;2.10;;;24.20;46.60;;;;;;7385400;19;20440;-50
2022/07/15 07:03:45;;;;;;;4.30;2.50;;;24.20;45.80;;;;;;7388478;19;20379;-52
2022/07/15 07:06:14;;;;;;;3.37;2.47;;;24.40;45.60;;;;;;7387596;19;20384;-50
2022/07/15 07:08:46;;;;;;;3.70;2.50;;;24.60;45.30;;;;;;7378700;19;20390;-50
2022/07/15 07:11:18;;;;;;;6.57;2.43;;;24.50;44.40;;;;;;7382077;19;21008;-50
2022/07/15 07:13:48;;;;;;;6.03;2.40;;;24.60;44.00;;;;;;7384668;19;20387;-50
2022/07/15 07:16:17;;;;;;;4.13;2.23;;;24.50;44.10;;;;;;7383033;19;21031;-50
2022/07/15 07:18:50;;;;;;;3.90;2.00;;;24.70;44.00;;;;;;7376752;19;20376;-50
2022/07/15 07:21:22;;;;;;;4.13;2.27;;;24.90;42.10;;;;;;7376752;19;20391;-51
2022/07/15 07:23:52;;;;;;;4.00;2.07;;;25.10;42.40;;;;;;7379757;19;20360;-51
2022/07/15 07:26:24;;;;;;;3.33;2.30;;;25.10;41.70;;;;;;7384029;19;20943;-52
2022/07/15 07:28:53;;;;;;;5.73;2.43;;;25.00;42.10;;;;;;7387315;19;20963;-50
2022/07/15 07:31:26;;;;;;;4.23;2.03;;;25.10;42.10;;;;;;7385942;19;20405;-46
2022/07/15 07:33:55;;;;;;;4.63;2.10;;;25.00;41.90;;;;;;7390024;19;20443;-46
2022/07/15 07:36:28;;;;;;;2.67;2.47;;;25.10;42.10;;;;;;7386130;19;20387;-46
2022/07/15 07:39:00;;;;;;;3.87;2.13;;;25.00;41.10;;;;;;7388839;19;21102;-46
2022/07/15 07:41:32;;;;;;;3.50;1.80;;;25.20;42.00;;;;;;7389279;19;20988;-46
2022/07/15 07:44:01;;;;;;;4.00;2.10;;;25.30;41.20;;;;;;7382508;19;20383;-46
2022/07/15 07:46:31;;;;;;;5.23;2.00;;;25.50;41.40;;;;;;7389084;19;20416;-46
2022/07/15 07:49:00;;;;;;;5.40;2.07;;;25.60;41.00;;;;;;7387238;19;20380;-46
2022/07/15 07:51:30;;;;;;;2.67;1.90;;;25.70;40.50;;;;;;7388127;19;20376;-46
2022/07/15 07:54:00;;;;;;;4.57;1.90;;;25.60;41.80;;;;;;7388506;19;20376;-46
2022/07/15 07:56:32;;;;;;;5.20;1.80;;;25.70;39.50;;;;;;7386058;19;20933;-46
2022/07/15 07:59:01;;;;;;;2.87;2.13;;;25.70;39.00;;;;;;7387955;19;21056;-46
2022/07/15 08:01:30;;;;;;;3.03;2.03;;;25.90;39.50;;;;;;7385089;19;20371;-46
2022/07/15 08:04:00;;;;;;;4.23;2.93;;;26.10;39.30;;;;;;7384341;19;20367;-46
2022/07/15 08:06:29;;;;;;;2.43;1.90;;;26.20;38.40;;;;;;7387249;19;20888;-46
2022/07/15 08:09:01;;;;;;;3.10;1.67;;;26.30;38.60;;;;;;7386009;19;20463;-46
2022/07/15 08:11:33;;;;;;;2.20;1.60;;;26.50;38.50;;;;;;7388812;19;20943;-50
2022/07/15 08:14:03;;;;;;;2.70;1.53;;;26.60;38.00;;;;;;7387951;19;20364;-50
2022/07/15 08:16:34;;;;;;;2.67;2.07;;;26.60;37.40;;;;;;7386492;19;20417;-50
2022/07/15 08:19:06;;;;;;;2.60;1.77;;;26.70;37.30;;;;;;7387769;19;20376;-50
2022/07/15 08:21:35;;;;;;;2.87;1.80;;;26.70;36.60;;;;;;7389084;19;20766;-50
2022/07/15 08:24:05;;;;;;;4.43;1.90;;;26.80;36.50;;;;;;7389205;19;20372;-50
2022/07/15 08:26:37;;;;;;;3.20;1.67;;;26.70;36.50;;;;;;7384313;19;21478;-50
2022/07/15 08:29:07;;;;;;;3.83;2.30;;;26.80;36.50;;;;;;7388060;19;20424;-50
2022/07/15 08:31:38;;;;;;;2.37;1.80;;;26.90;36.30;;;;;;7386939;19;20909;-51
2022/07/15 08:34:08;;;;;;;2.07;1.50;;;27.10;37.10;;;;;;7384747;19;20377;-50
2022/07/15 08:36:38;;;;;;;2.40;2.10;;;27.20;36.10;;;;;;7383919;19;20412;-51
2022/07/15 08:39:07;;;;;;;3.03;2.30;;;27.20;35.70;;;;;;7387639;19;20387;-51
2022/07/15 08:41:39;;;;;;;3.20;1.83;;;27.40;35.60;;;;;;7383166;19;20379;-52
2022/07/15 08:44:09;;;;;;;3.10;2.07;;;27.50;35.10;;;;;;7387931;19;20397;-50
2022/07/15 08:46:39;;;;;;;4.50;1.70;;;27.70;34.90;;;;;;7385204;19;20384;-50
2022/07/15 08:49:15;;;;;;;4.27;2.80;;;28.00;34.50;;;;;;7385640;19;20401;-50
2022/07/15 08:51:46;;;;;;;3.53;2.30;;;28.30;34.30;;;;;;7387306;19;21159;-50
2022/07/15 08:54:17;;;;;;;2.57;1.77;;;28.30;34.30;;;;;;7383896;19;20412;-51
2022/07/15 08:56:49;;;;;;;3.40;2.30;;;28.50;34.20;;;;;;7382061;19;20467;-50
2022/07/15 08:59:19;;;;;;;4.53;2.50;;;28.70;34.00;;;;;;7382684;19;20369;-50
2022/07/15 09:01:50;;;;;;;2.90;1.60;;;28.90;34.40;;;;;;7385411;19;20396;-50
2022/07/15 09:04:22;;;;;;;2.00;1.80;;;28.70;33.30;;;;;;7387631;19;20384;-50
2022/07/15 09:06:53;;;;;;;2.60;1.90;;;28.70;34.10;;;;;;7385123;19;20372;-50
2022/07/15 09:09:31;;;;;;;2.77;2.00;;;28.80;33.30;;;;;;7386297;19;20380;-50
2022/07/15 09:12:06;;;;;;;4.67;2.23;;;29.00;33.70;;;;;;7383957;19;20368;-50
2022/07/15 09:14:37;;;;;;;4.10;1.90;;;29.10;33.50;;;;;;7387774;19;20415;-50
2022/07/15 09:17:23;;;;;;;2.60;1.97;;;29.40;33.30;;;;;;7383869;19;20424;-51
2022/07/15 09:20:08;;;;;;;3.20;1.90;;;29.70;32.60;;;;;;7381753;19;20476;-51
2022/07/15 09:22:51;;;;;;;4.30;3.50;;;29.90;32.60;;;;;;7385581;19;20778;-51
2022/07/15 09:25:22;;;;;;;7.80;4.60;;;30.10;32.00;;;;;;7381866;19;20390;-51
2022/07/15 09:27:57;;;;;;;5.37;3.00;;;30.30;32.00;;;;;;7383709;19;20379;-51
2022/07/15 09:36:07;;;;;;;6.37;3.20;;;30.40;32.10;;;;;;7383002;19;20386;-51
2022/07/15 09:38:43;;;;;;;4.10;2.90;;;30.60;31.60;;;;;;7386180;19;20403;-51
2022/07/15 09:41:15;;;;;;;2.30;1.90;;;30.80;31.50;;;;;;7382986;19;20471;-47
2022/07/15 09:43:52;;;;;;;4.10;2.40;;;31.20;31.40;;;;;;7381299;19;20379;-47
2022/07/15 09:46:23;;;;;;;4.60;2.20;;;31.60;30.80;;;;;;7383635;19;20761;-47
2022/07/15 09:48:54;;;;;;;3.20;2.17;;;31.50;30.60;;;;;;7385642;19;20412;-47
2022/07/15 09:51:25;;;;;;;6.20;2.17;;;31.60;30.50;;;;;;7386388;19;20378;-47
2022/07/15 09:53:55;;;;;;;3.27;1.60;;;31.70;30.30;;;;;;7381878;19;20380;-47
2022/07/15 09:56:26;;;;;;;4.17;1.97;;;31.90;30.00;;;;;;7383166;19;20771;-47
2022/07/15 09:59:00;;;;;;;3.63;2.50;;;32.20;30.30;;;;;;7385782;19;20380;-47
2022/07/15 10:01:29;;;;;;;3.93;2.00;;;32.30;29.90;;;;;;7381826;19;20891;-47
2022/07/15 10:03:59;;;;;;;3.40;2.00;;;32.30;29.70;;;;;;7383756;19;20439;-47
2022/07/15 10:06:30;;;;;;;3.10;2.00;;;32.40;29.90;;;;;;7382020;19;20427;-47
2022/07/15 10:09:01;;;;;;;2.07;1.87;;;32.30;29.60;;;;;;7380107;19;20382;-47
2022/07/15 10:11:31;;;;;;;1.80;1.43;;;32.30;30.00;;;;;;7383571;19;20430;-47
2022/07/15 10:14:20;;;;;;;3.57;2.00;;;32.70;29.50;;;;;;7383187;19;20379;-47
2022/07/15 10:17:14;;;;;;;6.27;2.00;;;33.30;29.00;;;;;;7384096;19;20388;-47
2022/07/15 10:20:12;;;;;;;2.97;1.80;;;33.80;28.60;;;;;;7383015;19;20410;-47
2022/07/15 10:22:56;;;;;;;4.20;2.00;;;34.60;27.90;;;;;;7382937;19;20407;-47
2022/07/15 10:25:47;;;;;;;5.80;2.20;;;35.10;27.50;;;;;;7382991;19;20380;-47
2022/07/15 10:28:22;;;;;;;4.13;1.50;;;35.10;27.60;;;;;;7380451;19;20420;-47
2022/07/15 10:31:16;;;;;;;4.40;1.90;;;34.80;27.70;;;;;;7391348;19;20426;-47
2022/07/15 10:34:05;;;;;;;3.00;1.97;;;34.90;27.50;;;;;;7392194;19;20374;-48
2022/07/15 10:36:41;;;;;;;3.30;1.80;;;34.80;27.30;;;;;;7391438;19;20388;-47
2022/07/15 10:39:13;;;;;;;2.67;1.93;;;34.40;27.50;;;;;;7390641;19;20386;-46
2022/07/15 10:41:56;;;;;;;3.23;1.80;;;34.30;27.90;;;;;;7391499;19;20376;-47
2022/07/15 10:44:29;;;;;;;6.50;1.97;;;34.00;28.20;;;;;;7391306;19;20918;-47
2022/07/15 10:47:22;;;;;;;2.97;1.80;;;33.80;28.30;;;;;;7389932;19;20388;-47
2022/07/15 10:49:53;;;;;;;5.23;1.97;;;33.90;28.50;;;;;;7392157;19;20470;-51
2022/07/15 10:52:24;;;;;;;3.40;1.97;;;33.80;27.90;;;;;;7389893;19;20378;-50
2022/07/15 10:55:04;;;;;;;4.33;2.10;;;33.70;28.20;;;;;;7391179;19;20423;-51
2022/07/15 10:57:53;;;;;;;2.67;1.77;;;34.10;28.30;;;;;;7389482;19;20972;-51
2022/07/15 11:00:32;;;;;;;3.40;1.80;;;34.10;27.90;;;;;;7389450;19;20559;-50
2022/07/15 11:03:11;;;;;;;3.57;2.10;;;34.50;27.90;;;;;;7389267;19;20372;-52
2022/07/15 11:06:03;;;;;;;2.50;1.60;;;34.90;27.40;;;;;;7389156;19;20379;-52
2022/07/15 11:08:51;;;;;;;3.37;1.80;;;34.80;27.80;;;;;;7386638;19;20387;-52
2022/07/15 11:11:49;;;;;;;2.80;2.43;;;34.60;27.90;;;;;;7388744;19;20383;-51
2022/07/15 11:14:45;;;;;;;3.97;2.10;;;34.30;27.60;;;;;;7390078;19;20412;-51
2022/07/15 11:17:20;;;;;;;5.80;2.17;;;33.30;28.20;;;;;;7389492;19;20384;-52
2022/07/15 11:19:55;;;;;;;4.53;2.23;;;32.90;28.90;;;;;;7390638;19;20372;-47
2022/07/15 11:22:26;;;;;;;5.53;2.30;;;33.10;29.10;;;;;;7391862;19;20379;-47
2022/07/15 11:24:56;;;;;;;5.80;2.07;;;33.50;28.60;;;;;;7389238;19;20757;-47
2022/07/15 11:27:26;;;;;;;2.60;2.37;;;33.30;28.40;;;;;;7388734;19;20423;-47
2022/07/15 11:30:01;;;;;;;6.23;2.60;;;33.30;28.30;;;;;;7387480;19;21375;-47
2022/07/15 11:32:35;;;;;;;3.37;2.63;;;33.60;28.40;;;;;;7389246;19;20447;-47
2022/07/15 11:35:08;;;;;;;2.93;2.33;;;33.30;28.10;;;;;;7390028;19;20375;-47
2022/07/15 11:37:38;;;;;;;4.80;2.07;;;33.50;28.70;;;;;;7388977;19;20929;-47
2022/07/15 11:44:29;;;;;;;2.30;2.03;;;33.70;28.20;;;;;;7381599;19;20376;-47
2022/07/15 11:45:48;;;;;;;5.23;2.27;;;33.80;28.40;;;;;;7389376;19;20479;-47
2022/07/15 11:48:17;;;;;;;3.87;1.93;;;33.20;28.80;;;;;;7389098;19;20368;-47
2022/07/15 11:50:56;;;;;;;3.50;2.13;;;32.70;29.20;;;;;;7390478;19;20383;-47
2022/07/15 11:53:26;;;;;;;3.37;2.37;;;33.00;29.50;;;;;;7388785;19;20367;-47
2022/07/15 11:55:59;;;;;;;3.30;2.20;;;33.00;29.20;;;;;;7387772;19;20391;-47
2022/07/15 11:58:30;;;;;;;4.47;1.63;;;33.20;29.10;;;;;;7387104;19;20388;-47
2022/07/15 12:01:04;;;;;;;4.10;2.37;;;33.20;29.10;;;;;;7385416;19;20475;-47
2022/07/15 12:03:34;;;;;;;3.83;2.73;;;32.90;29.10;;;;;;7390452;19;20372;-47
2022/07/15 12:06:18;;;;;;;4.77;2.50;;;33.10;29.20;;;;;;7389953;19;20399;-47
2022/07/15 12:08:52;;;;;;;3.17;2.27;;;33.00;29.40;;;;;;7388191;19;20734;-47
2022/07/15 12:11:24;;;;;;;4.87;2.53;;;32.80;29.50;;;;;;7387317;19;20412;-47
2022/07/15 12:13:57;;;;;;;3.00;2.20;;;32.50;29.80;;;;;;7388757;19;20384;-47
2022/07/15 12:16:30;;;;;;;2.97;1.80;;;32.50;30.40;;;;;;7388181;19;20389;-47
2022/07/15 12:19:03;;;;;;;32.40;30.13;;;32.90;29.90;;;;;;7388456;19;20973;-47
2022/07/15 12:21:35;;;;;;;3.37;3.07;;;33.00;29.40;;;;;;7388065;19;20368;-47
2022/07/15 12:24:11;;;;;;;4.97;2.20;;;33.10;29.30;;;;;;7386584;19;20420;-47
2022/07/15 12:26:44;;;;;;;3.77;2.60;;;33.20;29.10;;;;;;7384172;19;20434;-47
2022/07/15 12:29:14;;;;;;;3.77;2.13;;;32.90;29.70;;;;;;7388162;19;20864;-47
2022/07/15 12:31:53;;;;;;;6.53;2.30;;;33.10;29.20;;;;;;7388835;19;20912;-46
2022/07/15 12:34:22;;;;;;;2.10;1.80;;;33.40;29.00;;;;;;7387638;19;20775;-47
2022/07/15 12:37:02;;;;;;;2.53;2.00;;;33.60;28.60;;;;;;7390151;19;20368;-47
2022/07/15 12:39:31;;;;;;;4.23;2.00;;;33.70;28.80;;;;;;7388226;19;20435;-47
2022/07/15 12:42:03;;;;;;;3.90;2.47;;;33.30;28.80;;;;;;7388370;19;20374;-46
2022/07/15 12:44:34;;;;;;;3.90;2.10;;;33.30;29.20;;;;;;7388153;19;20380;-47
2022/07/15 12:47:07;;;;;;;4.93;2.30;;;33.30;28.80;;;;;;7387550;19;20376;-47
2022/07/15 12:49:49;;;;;;;6.13;2.47;;;33.40;28.90;;;;;;7381902;19;20410;-47
2022/07/15 12:52:27;;;;;;;3.07;1.70;;;33.80;28.60;;;;;;7384277;19;20375;-47
2022/07/15 12:54:58;;;;;;;3.10;2.60;;;34.00;28.40;;;;;;7386751;19;20376;-47
2022/07/15 12:57:34;;;;;;;2.80;1.90;;;34.40;28.20;;;;;;7384897;19;20376;-47
2022/07/15 13:00:08;;;;;;;3.90;1.90;;;34.80;28.10;;;;;;7388551;19;20439;-47
2022/07/15 13:03:03;;;;;;;6.37;2.20;;;34.70;28.20;;;;;;7387456;19;20376;-47
2022/07/15 13:05:37;;;;;;;2.87;1.80;;;35.10;28.10;;;;;;7386891;19;21053;-47
2022/07/15 13:08:11;;;;;;;4.73;2.00;;;34.90;27.70;;;;;;7388070;19;20460;-47
2022/07/15 13:10:42;;;;;;;2.60;1.97;;;34.70;27.90;;;;;;7388091;19;20461;-47
2022/07/15 13:13:13;;;;;;;5.33;2.37;;;34.70;28.00;;;;;;7388902;19;20375;-47
2022/07/15 13:15:42;;;;;;;2.10;1.53;;;34.80;27.90;;;;;;7384879;19;20452;-47
2022/07/15 13:18:13;;;;;;;4.10;2.17;;;35.10;27.80;;;;;;7360664;19;20479;-47
2022/07/15 13:20:43;;;;;;;2.73;2.00;;;34.60;28.00;;;;;;7387053;19;20385;-47
2022/07/15 13:23:15;;;;;;;5.77;2.47;;;34.10;28.30;;;;;;7385674;19;20405;-47
2022/07/15 13:25:45;;;;;;;3.27;1.97;;;33.70;29.10;;;;;;7382861;19;20993;-46
2022/07/15 13:28:15;;;;;;;5.00;2.33;;;33.30;29.10;;;;;;7387486;19;20932;-47